Time,TemperatureF,DewpointF,PressureIn,WindDirection,WindDirectionDegrees,WindSpeedMPH,WindSpeedGustMPH,Humidity,HourlyPrecipIn,Conditions,Clouds,dailyrainin,SoftwareType,DateUTC
2013-04-22 00:01:00,61.0,29.0,-100.00,West,272,5.0,6.0,30,-99.99,,,-99.99,,2013-04-22 07:01:00,
2013-04-22 00:11:00,60.0,28.0,-100.00,West,274,4.0,5.0,30,-99.99,,,-99.99,,2013-04-22 07:11:00,
2013-04-22 00:21:00,60.0,27.0,-100.00,WNW,285,4.0,4.0,28,-99.99,,,-99.99,,2013-04-22 07:21:00,
2013-04-22 00:32:00,60.0,24.0,-100.00,WNW,290,4.0,4.0,25,-99.99,,,-99.99,,2013-04-22 07:32:00,
2013-04-22 00:42:00,60.0,25.0,-100.00,WNW,294,4.0,5.0,26,-99.99,,,-99.99,,2013-04-22 07:42:00,
2013-04-22 00:52:00,60.0,24.0,-100.00,WNW,301,5.0,5.0,25,-99.99,,,-99.99,,2013-04-22 07:52:00,
2013-04-22 01:01:00,60.0,22.0,-100.00,WNW,302,5.0,6.0,23,-99.99,,,-99.99,,2013-04-22 08:01:00,
2013-04-22 01:11:00,60.0,21.0,-100.00,WNW,301,5.0,6.0,22,-99.99,,,-99.99,,2013-04-22 08:11:00,
2013-04-22 01:21:00,60.0,20.0,-100.00,WNW,292,5.0,6.0,21,-99.99,,,-99.99,,2013-04-22 08:21:00,
2013-04-22 01:32:00,60.0,19.0,-100.00,WNW,287,5.0,5.0,20,-99.99,,,-99.99,,2013-04-22 08:32:00,
2013-04-22 01:41:00,60.0,19.0,-100.00,WNW,292,5.0,6.0,20,-99.99,,,-99.99,,2013-04-22 08:41:00,
2013-04-22 01:52:00,60.0,18.0,-100.00,WNW,290,5.0,5.0,19,-99.99,,,-99.99,,2013-04-22 08:52:00,
2013-04-22 02:01:00,60.0,19.0,-100.00,WNW,285,5.0,6.0,20,-99.99,,,-99.99,,2013-04-22 09:01:00,
2013-04-22 02:11:00,60.0,20.0,-100.00,West,280,5.0,5.0,21,-99.99,,,-99.99,,2013-04-22 09:11:00,
2013-04-22 02:32:00,60.0,20.0,-100.00,West,270,5.0,6.0,21,-99.99,,,-99.99,,2013-04-22 09:32:00,
2013-04-22 02:42:00,60.0,20.0,-100.00,West,262,5.0,6.0,21,-99.99,,,-99.99,,2013-04-22 09:42:00,
2013-04-22 03:03:00,60.0,21.0,-100.00,WNW,283,4.0,6.0,22,-99.99,,,-99.99,,2013-04-22 10:03:00,
2013-04-22 03:12:00,59.0,20.0,-100.00,WNW,295,4.0,4.0,22,-99.99,,,-99.99,,2013-04-22 10:12:00,
2013-04-22 03:22:00,59.0,20.0,-100.00,WNW,293,4.0,4.0,22,-99.99,,,-99.99,,2013-04-22 10:22:00,
2013-04-22 03:32:00,59.0,18.0,-100.00,WNW,303,3.0,4.0,20,-99.99,,,-99.99,,2013-04-22 10:32:00,
2013-04-22 03:52:00,60.0,19.0,-100.00,WNW,294,3.0,4.0,20,-99.99,,,-99.99,,2013-04-22 10:52:00,
2013-04-22 04:02:00,60.0,18.0,-100.00,West,280,4.0,6.0,19,-99.99,,,-99.99,,2013-04-22 11:02:00,
2013-04-22 04:12:00,60.0,18.0,-100.00,West,262,6.0,7.0,19,-99.99,,,-99.99,,2013-04-22 11:12:00,
2013-04-22 04:42:00,58.0,17.0,-100.00,West,279,4.0,5.0,20,-99.99,,,-99.99,,2013-04-22 11:42:00,
2013-04-22 05:01:00,57.0,17.0,-100.00,WNW,284,4.0,6.0,21,-99.99,,,-99.99,,2013-04-22 12:01:00,
2013-04-22 05:12:00,57.0,19.0,-100.00,WNW,289,5.0,6.0,22,-99.99,,,-99.99,,2013-04-22 12:12:00,
2013-04-22 05:31:00,56.0,18.0,-100.00,WNW,293,5.0,6.0,22,-99.99,,,-99.99,,2013-04-22 12:31:00,
2013-04-22 06:01:00,58.0,15.0,-100.00,NNW,341,5.0,6.0,18,-99.99,,,-99.99,,2013-04-22 13:01:00,
2013-04-22 06:11:00,58.0,15.0,-100.00,NNW,347,5.0,6.0,18,-99.99,,,-99.99,,2013-04-22 13:11:00,
2013-04-22 06:22:00,58.0,15.0,-100.00,NNW,340,5.0,5.0,18,-99.99,,,-99.99,,2013-04-22 13:22:00,
2013-04-22 06:31:00,58.0,15.0,-100.00,NNW,337,4.0,5.0,18,-99.99,,,-99.99,,2013-04-22 13:31:00,
2013-04-22 06:41:00,59.0,14.0,-100.00,NNW,335,3.0,4.0,17,-99.99,,,-99.99,,2013-04-22 13:41:00,
2013-04-22 06:52:00,58.0,13.0,-100.00,NW,326,3.0,4.0,17,-99.99,,,-99.99,,2013-04-22 13:52:00,
2013-04-22 07:01:00,59.0,14.0,-100.00,NW,326,3.0,4.0,17,-99.99,,,-99.99,,2013-04-22 14:01:00,
2013-04-22 07:11:00,59.0,14.0,-100.00,NW,326,3.0,4.0,17,-99.99,,,-99.99,,2013-04-22 14:11:00,
2013-04-22 07:33:00,60.0,14.0,-100.00,West,265,3.0,3.0,16,-99.99,,,-99.99,,2013-04-22 14:33:00,
2013-04-22 07:42:00,60.0,14.0,-100.00,WSW,246,3.0,4.0,16,-99.99,,,-99.99,,2013-04-22 14:42:00,
2013-04-22 07:51:00,61.0,16.0,-100.00,WSW,253,3.0,4.0,17,-99.99,,,-99.99,,2013-04-22 14:51:00,
2013-04-22 08:01:00,61.0,20.0,-100.00,West,273,2.0,3.0,20,-99.99,,,-99.99,,2013-04-22 15:01:00,
2013-04-22 08:11:00,61.0,18.0,-100.00,WNW,286,3.0,3.0,19,-99.99,,,-99.99,,2013-04-22 15:11:00,
2013-04-22 08:22:00,62.0,20.0,-100.00,West,271,2.0,3.0,20,-99.99,,,-99.99,,2013-04-22 15:22:00,
2013-04-22 08:33:00,62.0,20.0,-100.00,West,270,3.0,6.0,20,-99.99,,,-99.99,,2013-04-22 15:33:00,
2013-04-22 08:42:00,62.0,18.0,-100.00,WNW,291,4.0,5.0,18,-99.99,,,-99.99,,2013-04-22 15:42:00,
2013-04-22 08:53:00,62.0,18.0,-100.00,West,269,3.0,6.0,18,-99.99,,,-99.99,,2013-04-22 15:53:00,
2013-04-22 09:02:00,63.0,18.0,-100.00,WSW,244,4.0,7.0,17,-99.99,,,-99.99,,2013-04-22 16:02:00,
2013-04-22 09:12:00,63.0,18.0,-100.00,WSW,244,4.0,7.0,17,-99.99,,,-99.99,,2013-04-22 16:12:00,
2013-04-22 09:22:00,64.0,20.0,-100.00,West,277,4.0,8.0,18,-99.99,,,-99.99,,2013-04-22 16:22:00,
2013-04-22 09:32:00,64.0,21.0,-100.00,West,268,4.0,7.0,19,-99.99,,,-99.99,,2013-04-22 16:32:00,
2013-04-22 09:42:00,65.0,20.0,-100.00,West,263,4.0,8.0,18,-99.99,,,-99.99,,2013-04-22 16:42:00,
2013-04-22 09:52:00,66.0,21.0,-100.00,West,266,4.0,7.0,18,-99.99,,,-99.99,,2013-04-22 16:52:00,
2013-04-22 10:02:00,66.0,21.0,-100.00,West,266,4.0,7.0,18,-99.99,,,-99.99,,2013-04-22 17:02:00,
2013-04-22 10:12:00,66.0,21.0,-100.00,SW,214,6.0,11.0,18,-99.99,,,-99.99,,2013-04-22 17:12:00,
2013-04-22 10:22:00,66.0,20.0,-100.00,SSW,213,4.0,9.0,17,-99.99,,,-99.99,,2013-04-22 17:22:00,
2013-04-22 10:31:00,68.0,22.0,-100.00,WSW,256,4.0,10.0,17,-99.99,,,-99.99,,2013-04-22 17:31:00,
2013-04-22 10:42:00,68.0,22.0,-100.00,WSW,256,4.0,10.0,17,-99.99,,,-99.99,,2013-04-22 17:42:00,
2013-04-22 10:51:00,69.0,22.0,-100.00,SW,234,6.0,10.0,17,-99.99,,,-99.99,,2013-04-22 17:51:00,
2013-04-22 11:01:00,69.0,22.0,-100.00,SW,220,6.0,10.0,17,-99.99,,,-99.99,,2013-04-22 18:01:00,
2013-04-22 11:12:00,69.0,24.0,-100.00,SW,222,8.0,13.0,18,-99.99,,,-99.99,,2013-04-22 18:12:00,
2013-04-22 11:21:00,70.0,23.0,-100.00,SW,236,8.0,11.0,17,-99.99,,,-99.99,,2013-04-22 18:21:00,
2013-04-22 11:31:00,69.0,24.0,-100.00,SSW,210,9.0,16.0,18,-99.99,,,-99.99,,2013-04-22 18:31:00,
2013-04-22 11:42:00,70.0,22.0,-100.00,SW,219,9.0,13.0,16,-99.99,,,-99.99,,2013-04-22 18:42:00,
2013-04-22 11:52:00,70.0,22.0,-100.00,SW,215,10.0,15.0,16,-99.99,,,-99.99,,2013-04-22 18:52:00,
2013-04-22 12:01:00,70.0,20.0,-100.00,SW,218,10.0,16.0,15,-99.99,,,-99.99,,2013-04-22 19:01:00,
2013-04-22 12:11:00,72.0,20.0,-100.00,SW,231,8.0,14.0,14,-99.99,,,-99.99,,2013-04-22 19:11:00,
2013-04-22 12:21:00,72.0,18.0,-100.00,SW,220,9.0,14.0,13,-99.99,,,-99.99,,2013-04-22 19:21:00,
2013-04-22 12:32:00,72.0,18.0,-100.00,SW,234,9.0,14.0,13,-99.99,,,-99.99,,2013-04-22 19:32:00,
2013-04-22 12:42:00,73.0,21.0,-100.00,SW,229,9.0,14.0,14,-99.99,,,-99.99,,2013-04-22 19:42:00,
2013-04-22 12:52:00,72.0,22.0,-100.00,SW,232,9.0,16.0,15,-99.99,,,-99.99,,2013-04-22 19:52:00,
2013-04-22 13:01:00,73.0,23.0,-100.00,WSW,237,10.0,17.0,15,-99.99,,,-99.99,,2013-04-22 20:01:00,
2013-04-22 13:11:00,72.0,22.0,-100.00,WSW,238,11.0,19.0,15,-99.99,,,-99.99,,2013-04-22 20:11:00,
2013-04-22 13:22:00,73.0,23.0,-100.00,WSW,240,9.0,16.0,15,-99.99,,,-99.99,,2013-04-22 20:22:00,
2013-04-22 13:31:00,74.0,22.0,-100.00,WSW,249,10.0,16.0,14,-99.99,,,-99.99,,2013-04-22 20:31:00,
2013-04-22 13:41:00,73.0,21.0,-100.00,WSW,247,11.0,16.0,14,-99.99,,,-99.99,,2013-04-22 20:41:00,
2013-04-22 13:51:00,72.0,23.0,-100.00,WSW,249,10.0,15.0,16,-99.99,,,-99.99,,2013-04-22 20:51:00,
2013-04-22 14:01:00,72.0,23.0,-100.00,WSW,249,10.0,15.0,16,-99.99,,,-99.99,,2013-04-22 21:01:00,
2013-04-22 14:11:00,72.0,27.0,-100.00,WSW,237,10.0,17.0,19,-99.99,,,-99.99,,2013-04-22 21:11:00,
2013-04-22 14:21:00,73.0,30.0,-100.00,WSW,250,9.0,14.0,20,-99.99,,,-99.99,,2013-04-22 21:21:00,
2013-04-22 14:32:00,73.0,32.0,-100.00,West,262,10.0,16.0,22,-99.99,,,-99.99,,2013-04-22 21:32:00,
2013-04-22 14:42:00,72.0,32.0,-100.00,WSW,253,12.0,17.0,23,-99.99,,,-99.99,,2013-04-22 21:42:00,
2013-04-22 14:52:00,73.0,34.0,-100.00,WSW,247,11.0,16.0,24,-99.99,,,-99.99,,2013-04-22 21:52:00,
2013-04-22 15:02:00,73.0,36.0,-100.00,WSW,252,12.0,19.0,26,-99.99,,,-99.99,,2013-04-22 22:02:00,
2013-04-22 15:12:00,73.0,35.0,-100.00,WSW,250,11.0,17.0,25,-99.99,,,-99.99,,2013-04-22 22:12:00,
2013-04-22 15:22:00,73.0,36.0,-100.00,WSW,245,12.0,18.0,26,-99.99,,,-99.99,,2013-04-22 22:22:00,
2013-04-22 15:32:00,72.0,35.0,-100.00,WSW,252,13.0,20.0,26,-99.99,,,-99.99,,2013-04-22 22:32:00,
2013-04-22 15:42:00,72.0,35.0,-100.00,West,261,12.0,20.0,26,-99.99,,,-99.99,,2013-04-22 22:42:00,
2013-04-22 15:52:00,72.0,35.0,-100.00,WSW,255,13.0,18.0,26,-99.99,,,-99.99,,2013-04-22 22:52:00,
2013-04-22 16:02:00,72.0,36.0,-100.00,WSW,249,12.0,18.0,27,-99.99,,,-99.99,,2013-04-22 23:02:00,
2013-04-22 16:11:00,72.0,39.0,-100.00,WSW,244,12.0,18.0,30,-99.99,,,-99.99,,2013-04-22 23:11:00,
2013-04-22 16:21:00,72.0,40.0,-100.00,WSW,240,13.0,19.0,31,-99.99,,,-99.99,,2013-04-22 23:21:00,
2013-04-22 16:32:00,71.0,40.0,-100.00,WSW,249,12.0,18.0,32,-99.99,,,-99.99,,2013-04-22 23:32:00,
2013-04-22 16:42:00,71.0,39.0,-100.00,WSW,251,12.0,19.0,31,-99.99,,,-99.99,,2013-04-22 23:42:00,
2013-04-22 16:52:00,70.0,39.0,-100.00,WSW,248,12.0,18.0,32,-99.99,,,-99.99,,2013-04-22 23:52:00,
2013-04-22 17:01:00,69.0,39.0,-100.00,WSW,249,14.0,18.0,33,-99.99,,,-99.99,,2013-04-23 00:01:00,
2013-04-22 17:12:00,69.0,39.0,-100.00,WSW,249,14.0,18.0,33,-99.99,,,-99.99,,2013-04-23 00:12:00,
2013-04-22 17:21:00,68.0,39.0,-100.00,WSW,243,13.0,18.0,35,-99.99,,,-99.99,,2013-04-23 00:21:00,
2013-04-22 17:31:00,68.0,40.0,-100.00,WSW,241,12.0,18.0,36,-99.99,,,-99.99,,2013-04-23 00:31:00,
2013-04-22 17:42:00,68.0,40.0,-100.00,WSW,241,12.0,18.0,36,-99.99,,,-99.99,,2013-04-23 00:42:00,
2013-04-22 17:51:00,67.0,41.0,-100.00,WSW,242,12.0,18.0,38,-99.99,,,-99.99,,2013-04-23 00:51:00,
2013-04-22 18:01:00,67.0,41.0,-100.00,WSW,245,11.0,16.0,39,-99.99,,,-99.99,,2013-04-23 01:01:00,
2013-04-22 18:11:00,66.0,41.0,-100.00,WSW,242,12.0,16.0,40,-99.99,,,-99.99,,2013-04-23 01:11:00,
2013-04-22 18:21:00,66.0,42.0,-100.00,WSW,240,11.0,16.0,42,-99.99,,,-99.99,,2013-04-23 01:21:00,
2013-04-22 18:31:00,65.0,42.0,-100.00,WSW,249,10.0,16.0,43,-99.99,,,-99.99,,2013-04-23 01:31:00,
2013-04-22 18:42:00,65.0,42.0,-100.00,WSW,244,9.0,13.0,43,-99.99,,,-99.99,,2013-04-23 01:42:00,
2013-04-22 18:52:00,65.0,43.0,-100.00,WSW,238,8.0,13.0,44,-99.99,,,-99.99,,2013-04-23 01:52:00,
2013-04-22 19:01:00,64.0,42.0,-100.00,SW,227,9.0,12.0,45,-99.99,,,-99.99,,2013-04-23 02:01:00,
2013-04-22 19:12:00,63.0,42.0,-100.00,SW,220,9.0,13.0,47,-99.99,,,-99.99,,2013-04-23 02:12:00,
2013-04-22 19:21:00,62.0,42.0,-100.00,SW,215,9.0,13.0,48,-99.99,,,-99.99,,2013-04-23 02:21:00,
2013-04-22 19:32:00,60.0,41.0,-100.00,SW,224,9.0,12.0,50,-99.99,,,-99.99,,2013-04-23 02:32:00,
2013-04-22 19:42:00,60.0,42.0,-100.00,SW,223,9.0,12.0,52,-99.99,,,-99.99,,2013-04-23 02:42:00,
2013-04-22 19:52:00,58.0,42.0,-100.00,SW,225,7.0,9.0,55,-99.99,,,-99.99,,2013-04-23 02:52:00,
2013-04-22 20:01:00,57.0,43.0,-100.00,SW,235,7.0,9.0,59,-99.99,,,-99.99,,2013-04-23 03:01:00,
2013-04-22 20:11:00,56.0,43.0,-100.00,WSW,255,7.0,10.0,61,-99.99,,,-99.99,,2013-04-23 03:11:00,
2013-04-22 20:21:00,56.0,44.0,-100.00,WSW,255,8.0,11.0,63,-99.99,,,-99.99,,2013-04-23 03:21:00,
2013-04-22 20:32:00,55.0,44.0,-100.00,West,261,7.0,9.0,66,-99.99,,,-99.99,,2013-04-23 03:32:00,
2013-04-22 20:43:00,55.0,44.0,-100.00,West,271,8.0,10.0,67,-99.99,,,-99.99,,2013-04-23 03:43:00,
2013-04-22 20:52:00,54.0,44.0,-100.00,West,266,8.0,10.0,69,-99.99,,,-99.99,,2013-04-23 03:52:00,
2013-04-22 21:03:00,54.0,45.0,-100.00,WSW,254,8.0,9.0,71,-99.99,,,-99.99,,2013-04-23 04:03:00,
2013-04-22 21:12:00,54.0,45.0,-100.00,WSW,251,7.0,8.0,72,-99.99,,,-99.99,,2013-04-23 04:12:00,
2013-04-22 21:23:00,54.0,45.0,-100.00,WSW,252,6.0,8.0,72,-99.99,,,-99.99,,2013-04-23 04:23:00,
2013-04-22 21:32:00,54.0,45.0,-100.00,WSW,248,6.0,7.0,72,-99.99,,,-99.99,,2013-04-23 04:32:00,
2013-04-22 21:43:00,54.0,45.0,-100.00,West,259,7.0,8.0,71,-99.99,,,-99.99,,2013-04-23 04:43:00,
2013-04-22 21:52:00,54.0,45.0,-100.00,West,260,6.0,8.0,71,-99.99,,,-99.99,,2013-04-23 04:52:00,
2013-04-22 22:02:00,54.0,45.0,-100.00,WSW,256,7.0,8.0,72,-99.99,,,-99.99,,2013-04-23 05:02:00,
2013-04-22 22:12:00,54.0,44.0,-100.00,West,260,8.0,9.0,69,-99.99,,,-99.99,,2013-04-23 05:12:00,
2013-04-22 22:22:00,54.0,42.0,-100.00,West,261,9.0,10.0,64,-99.99,,,-99.99,,2013-04-23 05:22:00,
2013-04-22 22:32:00,54.0,37.0,-100.00,West,264,9.0,10.0,53,-99.99,,,-99.99,,2013-04-23 05:32:00,
2013-04-22 22:42:00,54.0,35.0,-100.00,West,266,9.0,10.0,49,-99.99,,,-99.99,,2013-04-23 05:42:00,
2013-04-22 22:52:00,54.0,34.0,-100.00,West,262,9.0,10.0,46,-99.99,,,-99.99,,2013-04-23 05:52:00,
2013-04-22 23:01:00,54.0,34.0,-100.00,WSW,257,9.0,11.0,46,-99.99,,,-99.99,,2013-04-23 06:01:00,
2013-04-22 23:12:00,54.0,33.0,-100.00,WSW,253,9.0,11.0,45,-99.99,,,-99.99,,2013-04-23 06:12:00,
2013-04-22 23:21:00,54.0,33.0,-100.00,WSW,253,9.0,12.0,44,-99.99,,,-99.99,,2013-04-23 06:21:00,
2013-04-22 23:32:00,54.0,33.0,-100.00,WSW,255,9.0,11.0,44,-99.99,,,-99.99,,2013-04-23 06:32:00,
2013-04-22 23:41:00,53.0,32.0,-100.00,WSW,253,9.0,12.0,44,-99.99,,,-99.99,,2013-04-23 06:41:00,
2013-04-22 23:52:00,53.0,33.0,-100.00,WSW,252,9.0,11.0,46,-99.99,,,-99.99,,2013-04-23 06:52:00,